createdAt,value
2023-05-19T00:01:17.866Z,51.55
2023-05-19T00:03:57.828Z,51.45
2023-05-19T00:06:27.583Z,51.36
2023-05-19T00:08:58.828Z,51.39
2023-05-19T00:11:29.558Z,51.50
2023-05-19T00:13:58.605Z,51.41
2023-05-19T00:16:28.209Z,51.43
2023-05-19T00:18:57.244Z,51.48
2023-05-19T00:21:24.217Z,51.49
2023-05-19T00:23:51.062Z,51.32
2023-05-19T00:26:18.200Z,51.24
2023-05-19T00:28:53.321Z,51.08
2023-05-19T00:31:20.733Z,51.19
2023-05-19T00:33:47.576Z,51.04
2023-05-19T00:36:14.355Z,51.10
2023-05-19T00:38:41.123Z,51.16
2023-05-19T00:41:07.887Z,51.34
2023-05-19T00:43:34.765Z,51.29
2023-05-19T00:46:02.364Z,51.40
2023-05-19T00:48:29.378Z,51.31
2023-05-19T00:51:04.462Z,51.07
2023-05-19T00:53:35.617Z,51.26
2023-05-19T00:56:03.393Z,51.14
2023-05-19T00:58:32.719Z,51.23
2023-05-19T01:01:04.712Z,51.26
2023-05-19T01:03:35.643Z,51.39
2023-05-19T01:06:07.459Z,51.36
2023-05-19T01:08:36.350Z,51.35
2023-05-19T01:11:08.078Z,51.52
2023-05-19T01:13:36.372Z,51.53
2023-05-19T01:16:22.554Z,51.63
2023-05-19T01:19:19.940Z,51.66
2023-05-19T01:22:01.171Z,51.69
2023-05-19T01:24:28.049Z,51.64
2023-05-19T01:27:31.924Z,51.89
2023-05-19T01:30:17.370Z,51.96
2023-05-19T01:32:47.982Z,51.70
2023-05-19T01:35:16.797Z,51.98
2023-05-19T01:37:45.410Z,51.83
2023-05-19T01:40:12.868Z,51.67
2023-05-19T01:42:41.642Z,51.58
2023-05-19T01:45:12.021Z,51.61
2023-05-19T01:47:42.702Z,51.66
2023-05-19T01:50:10.027Z,51.66
2023-05-19T01:52:36.860Z,51.75
2023-05-19T01:55:03.960Z,51.97
2023-05-19T01:57:43.850Z,52.10
2023-05-19T02:00:54.879Z,52.05
2023-05-19T02:03:43.903Z,52.11
2023-05-19T02:06:33.091Z,52.51
2023-05-19T02:09:04.555Z,52.52
2023-05-19T02:11:42.486Z,52.45
2023-05-19T02:14:17.970Z,52.61
2023-05-19T02:16:48.761Z,52.54
2023-05-19T02:19:27.274Z,52.48
2023-05-19T02:21:55.421Z,52.75
2023-05-19T02:24:23.143Z,52.94
2023-05-19T02:26:52.108Z,52.72
2023-05-19T02:29:20.118Z,52.99
2023-05-19T02:31:47.545Z,52.83
2023-05-19T02:34:14.837Z,53.10
2023-05-19T02:36:45.761Z,53.10
2023-05-19T02:39:12.651Z,53.01
2023-05-19T02:41:39.404Z,52.99
2023-05-19T02:44:06.424Z,52.95
2023-05-19T02:46:33.958Z,52.97
2023-05-19T02:49:00.958Z,53.19
2023-05-19T02:51:27.846Z,53.04
2023-05-19T02:53:54.704Z,53.42
2023-05-19T02:56:21.809Z,53.24
2023-05-19T02:58:48.614Z,53.46
2023-05-19T03:01:16.635Z,53.34
2023-05-19T03:03:43.649Z,53.14
2023-05-19T03:06:10.597Z,53.18
2023-05-19T03:08:38.434Z,53.00
2023-05-19T03:11:06.594Z,52.96
2023-05-19T03:13:33.642Z,52.98
2023-05-19T03:16:00.438Z,52.88
2023-05-19T03:18:27.295Z,52.32
2023-05-19T03:20:54.221Z,52.31
2023-05-19T03:23:24.069Z,52.54
2023-05-19T03:25:51.004Z,52.57
2023-05-19T03:28:18.225Z,52.49
2023-05-19T03:30:45.341Z,52.51
2023-05-19T03:33:16.992Z,52.64
2023-05-19T03:35:45.727Z,52.56
2023-05-19T03:38:13.357Z,52.44
2023-05-19T03:40:41.928Z,52.54
2023-05-19T03:43:10.462Z,52.52
2023-05-19T03:45:42.969Z,52.36
2023-05-19T03:48:38.948Z,52.56
2023-05-19T03:51:28.605Z,52.40
2023-05-19T03:53:57.397Z,52.48
2023-05-19T03:56:26.729Z,52.37
2023-05-19T03:58:54.997Z,52.24
2023-05-19T04:01:22.338Z,52.31
2023-05-19T04:03:49.144Z,52.38
2023-05-19T04:06:15.935Z,52.23
2023-05-19T04:08:44.413Z,52.45
2023-05-19T04:11:12.873Z,52.36
2023-05-19T04:13:39.677Z,52.19
2023-05-19T04:16:07.064Z,51.99
2023-05-19T04:18:33.967Z,51.89
2023-05-19T04:21:01.884Z,51.85
2023-05-19T04:23:28.649Z,52.09
2023-05-19T04:25:57.185Z,51.86
2023-05-19T04:28:24.301Z,51.91
2023-05-19T04:30:51.720Z,51.92
2023-05-19T04:33:20.289Z,51.74
2023-05-19T04:35:47.506Z,52.19
2023-05-19T04:38:19.048Z,52.21
2023-05-19T04:40:50.447Z,52.38
2023-05-19T04:43:19.446Z,52.33
2023-05-19T04:45:47.471Z,52.40
2023-05-19T04:48:15.399Z,52.50
2023-05-19T04:50:42.418Z,52.78
2023-05-19T04:53:11.521Z,52.66
2023-05-19T04:55:39.006Z,52.54
2023-05-19T04:58:06.589Z,52.85
2023-05-19T05:00:35.756Z,52.84
2023-05-19T05:03:05.228Z,52.77
2023-05-19T05:05:32.695Z,52.78
2023-05-19T05:07:59.615Z,52.95
2023-05-19T05:10:28.068Z,53.14
2023-05-19T05:12:55.341Z,52.94
2023-05-19T05:15:22.626Z,53.16
2023-05-19T05:17:50.671Z,53.08
2023-05-19T05:20:19.689Z,53.11
2023-05-19T05:22:46.879Z,52.79
2023-05-19T05:25:16.474Z,52.80
2023-05-19T05:27:43.835Z,52.76
2023-05-19T05:30:10.869Z,52.89
2023-05-19T05:32:38.083Z,53.19
2023-05-19T05:35:10.396Z,52.74
2023-05-19T05:37:38.226Z,52.71
2023-05-19T05:40:07.162Z,52.51
2023-05-19T05:42:34.143Z,52.46
2023-05-19T05:45:00.958Z,51.94
2023-05-19T05:47:28.677Z,52.12
2023-05-19T05:49:56.125Z,52.06
2023-05-19T05:52:30.459Z,51.82
2023-05-19T05:54:59.179Z,51.96
2023-05-19T05:57:27.079Z,51.93
2023-05-19T05:59:53.784Z,51.59
2023-05-19T06:02:21.016Z,51.35
2023-05-19T06:04:47.879Z,51.57
2023-05-19T06:07:14.588Z,51.10
2023-05-19T06:09:41.529Z,51.02
2023-05-19T06:12:08.976Z,51.15
2023-05-19T06:14:43.011Z,51.02
2023-05-19T06:17:09.807Z,50.89
2023-05-19T06:19:36.529Z,50.78
2023-05-19T06:22:03.416Z,50.63
2023-05-19T06:24:30.684Z,50.49
2023-05-19T06:26:57.552Z,50.64
2023-05-19T06:29:24.427Z,50.71
2023-05-19T06:31:52.625Z,50.82
2023-05-19T06:34:21.150Z,50.35
2023-05-19T06:36:47.898Z,50.54
2023-05-19T06:39:14.691Z,50.47
2023-05-19T06:41:41.824Z,50.52
2023-05-19T06:44:09.254Z,50.43
2023-05-19T06:46:36.056Z,50.48
2023-05-19T06:49:04.319Z,50.23
2023-05-19T06:51:33.583Z,49.91
2023-05-19T06:54:00.552Z,49.92
2023-05-19T06:56:27.703Z,49.72
2023-05-19T06:58:56.102Z,49.59
2023-05-19T07:01:26.691Z,49.48
2023-05-19T07:03:54.720Z,49.49
2023-05-19T07:06:21.839Z,49.45
2023-05-19T07:08:48.766Z,49.53
2023-05-19T07:11:16.836Z,49.55
2023-05-19T07:13:44.116Z,49.17
2023-05-19T07:16:11.291Z,49.00
2023-05-19T07:18:38.365Z,48.89
2023-05-19T07:21:05.678Z,48.90
2023-05-19T07:23:32.443Z,48.91
2023-05-19T07:25:59.427Z,48.67
2023-05-19T07:28:26.198Z,48.84
2023-05-19T07:30:53.352Z,48.64
2023-05-19T07:33:20.091Z,48.60
2023-05-19T07:35:47.170Z,48.68
2023-05-19T07:38:14.065Z,48.62
2023-05-19T07:40:40.942Z,48.49
2023-05-19T07:43:07.721Z,48.59
2023-05-19T07:45:34.680Z,48.73
2023-05-19T07:48:01.562Z,48.56
2023-05-19T07:50:28.410Z,48.47
2023-05-19T07:52:56.017Z,48.22
2023-05-19T07:55:26.389Z,48.27
2023-05-19T07:57:53.165Z,48.06
2023-05-19T08:00:20.437Z,48.02
2023-05-19T08:02:47.469Z,47.90
2023-05-19T08:05:14.396Z,47.87
2023-05-19T08:07:41.133Z,48.22
2023-05-19T08:10:08.151Z,48.03
2023-05-19T08:12:35.088Z,47.74
2023-05-19T08:15:02.163Z,47.75
2023-05-19T08:17:29.065Z,47.74
2023-05-19T08:19:55.862Z,47.56
2023-05-19T08:22:22.627Z,48.00
2023-05-19T08:24:52.411Z,48.17
2023-05-19T08:27:19.088Z,47.89
2023-05-19T08:29:45.880Z,47.54
2023-05-19T08:32:13.452Z,47.44
2023-05-19T08:34:41.337Z,47.42
2023-05-19T08:37:08.343Z,47.31
2023-05-19T08:39:35.123Z,47.38
2023-05-19T08:42:02.598Z,47.33
2023-05-19T08:44:31.021Z,47.39
2023-05-19T08:47:05.194Z,47.15
2023-05-19T08:49:43.438Z,47.22
2023-05-19T08:52:21.113Z,46.78
2023-05-19T08:55:01.046Z,46.41
2023-05-19T08:57:28.795Z,46.22
2023-05-19T08:59:57.031Z,46.71
2023-05-19T09:02:24.626Z,46.58
2023-05-19T09:04:52.963Z,46.74
2023-05-19T09:07:21.250Z,47.02
2023-05-19T09:09:48.831Z,47.27
2023-05-19T09:12:15.567Z,47.54
2023-05-19T09:14:42.651Z,47.65
2023-05-19T09:17:10.140Z,47.68
2023-05-19T09:19:43.154Z,47.91
2023-05-19T09:22:10.007Z,47.96
2023-05-19T09:24:37.963Z,48.23
2023-05-19T09:27:04.860Z,48.55
2023-05-19T09:29:31.589Z,48.25
2023-05-19T09:32:01.620Z,48.42
2023-05-19T09:34:28.527Z,48.72
2023-05-19T09:36:55.639Z,48.76
2023-05-19T09:39:24.105Z,48.83
2023-05-19T09:41:55.524Z,49.04
2023-05-19T09:44:29.731Z,49.26
2023-05-19T09:46:58.360Z,49.24
2023-05-19T09:49:29.831Z,49.16
2023-05-19T09:51:58.406Z,49.03
2023-05-19T09:54:28.597Z,49.47
2023-05-19T09:56:59.250Z,49.63
2023-05-19T09:59:27.588Z,49.48
2023-05-19T10:01:57.329Z,49.16
2023-05-19T10:04:27.173Z,49.27
2023-05-19T10:06:55.369Z,49.45
2023-05-19T10:09:26.913Z,49.38
2023-05-19T10:11:55.449Z,49.29
2023-05-19T10:14:26.286Z,49.40
2023-05-19T10:16:55.241Z,49.14
2023-05-19T10:19:24.160Z,48.73
2023-05-19T10:21:52.160Z,48.87
2023-05-19T10:24:19.600Z,48.95
2023-05-19T10:27:02.454Z,48.96
2023-05-19T10:29:33.537Z,48.68
2023-05-19T10:32:08.936Z,48.28
2023-05-19T10:34:45.611Z,47.98
2023-05-19T10:37:36.871Z,47.95
2023-05-19T10:40:20.378Z,47.56
2023-05-19T10:43:16.939Z,47.97
2023-05-19T10:45:49.481Z,47.82
2023-05-19T10:48:17.515Z,47.63
2023-05-19T10:50:46.910Z,47.72
2023-05-19T10:53:18.603Z,47.46
2023-05-19T10:55:52.904Z,47.75
2023-05-19T10:58:39.307Z,47.73
2023-05-19T11:01:13.703Z,48.18
2023-05-19T11:03:59.683Z,48.06
2023-05-19T11:06:36.281Z,48.46
2023-05-19T11:09:12.639Z,48.60
2023-05-19T11:11:54.029Z,48.94
2023-05-19T11:14:25.674Z,48.93
2023-05-19T11:16:59.687Z,48.40
2023-05-19T11:19:34.411Z,48.28
2023-05-19T11:22:12.454Z,48.25
2023-05-19T11:24:54.309Z,48.58
2023-05-19T11:27:31.646Z,48.39
2023-05-19T11:30:11.854Z,48.09
2023-05-19T11:32:39.591Z,47.91
2023-05-19T11:35:08.162Z,47.71
2023-05-19T11:37:35.199Z,47.53
2023-05-19T11:40:04.858Z,47.71
2023-05-19T11:42:32.229Z,47.44
2023-05-19T11:44:58.968Z,47.32
2023-05-19T11:47:25.998Z,47.02
2023-05-19T11:49:56.710Z,47.62
2023-05-19T11:52:24.480Z,48.02
2023-05-19T11:54:51.809Z,48.33
2023-05-19T11:57:18.653Z,48.29
2023-05-19T11:59:48.425Z,48.54
2023-05-19T12:02:25.127Z,48.37
2023-05-19T12:04:52.361Z,48.54
2023-05-19T12:07:23.020Z,48.57
2023-05-19T12:09:54.844Z,48.52
2023-05-19T12:12:23.130Z,48.86
2023-05-19T12:14:51.991Z,48.98
2023-05-19T12:17:20.821Z,48.96
2023-05-19T12:19:49.449Z,48.81
2023-05-19T12:22:17.574Z,48.89
2023-05-19T12:24:45.212Z,49.01
2023-05-19T12:27:27.923Z,49.31
2023-05-19T12:29:57.324Z,49.51
2023-05-19T12:32:28.988Z,49.47
2023-05-19T12:34:57.402Z,49.41
2023-05-19T12:37:30.220Z,49.71
2023-05-19T12:39:57.967Z,49.82
2023-05-19T12:42:30.948Z,50.04
2023-05-19T12:45:00.677Z,50.61
2023-05-19T12:47:33.814Z,50.76
2023-05-19T12:50:00.871Z,51.30
2023-05-19T12:52:29.960Z,51.16
2023-05-19T12:55:01.961Z,51.02
2023-05-19T12:57:32.513Z,51.08
2023-05-19T13:00:14.998Z,51.50
2023-05-19T13:05:48.514Z,51.89
2023-05-19T13:08:24.785Z,52.14
2023-05-19T13:10:51.629Z,52.57
2023-05-19T13:13:19.439Z,53.23
2023-05-19T13:15:49.204Z,53.53
2023-05-19T13:18:16.898Z,54.11
2023-05-19T13:20:45.131Z,54.61
2023-05-19T13:23:13.013Z,54.66
2023-05-19T13:25:41.343Z,54.92
2023-05-19T13:28:08.658Z,55.37
2023-05-19T13:30:38.743Z,55.41
2023-05-19T13:33:06.352Z,56.05
2023-05-19T13:35:42.244Z,55.78
2023-05-19T13:38:10.832Z,56.14
2023-05-19T13:40:38.546Z,56.32
2023-05-19T13:43:06.168Z,56.51
2023-05-19T13:45:33.103Z,56.15
2023-05-19T13:47:59.972Z,56.39
2023-05-19T13:50:26.818Z,56.81
2023-05-19T13:52:54.064Z,57.45
2023-05-19T13:55:21.154Z,57.74
2023-05-19T13:57:47.950Z,57.99
2023-05-19T14:00:15.225Z,57.84
2023-05-19T14:02:42.500Z,58.08
2023-05-19T14:05:09.564Z,57.90
2023-05-19T14:07:37.187Z,58.41
2023-05-19T14:10:06.878Z,58.44
2023-05-19T14:12:49.322Z,58.97
2023-05-19T14:15:23.919Z,59.36
2023-05-19T14:17:50.745Z,60.09
2023-05-19T14:20:17.549Z,60.73
2023-05-19T14:22:44.441Z,60.74
2023-05-19T14:25:11.426Z,61.30
2023-05-19T14:27:40.505Z,61.12
2023-05-19T14:30:09.783Z,61.63
2023-05-19T14:32:36.628Z,61.85
2023-05-19T14:35:03.992Z,62.35
2023-05-19T14:37:32.280Z,62.34
2023-05-19T14:39:59.547Z,62.42
2023-05-19T14:42:26.340Z,62.68
2023-05-19T14:44:53.142Z,63.07
2023-05-19T14:47:19.878Z,63.13
2023-05-19T14:49:46.710Z,63.20
2023-05-19T14:52:13.468Z,62.94
2023-05-19T14:54:40.262Z,63.41
2023-05-19T14:57:08.243Z,63.46
2023-05-19T14:59:38.338Z,63.55
2023-05-19T15:02:05.648Z,64.08
2023-05-19T15:04:32.424Z,63.83
2023-05-19T15:09:32.488Z,64.04
2023-05-19T15:12:01.294Z,64.20
2023-05-19T15:14:30.121Z,64.45
2023-05-19T15:16:57.988Z,64.36
2023-05-19T15:19:25.060Z,64.22
2023-05-19T15:21:52.034Z,64.27
2023-05-19T15:24:19.308Z,64.20
2023-05-19T15:26:47.228Z,64.09
2023-05-19T15:29:13.991Z,64.37
2023-05-19T15:31:41.139Z,64.63
2023-05-19T15:34:08.281Z,64.76
2023-05-19T15:36:35.095Z,64.44
2023-05-19T15:39:01.840Z,64.04
2023-05-19T15:41:31.649Z,64.07
2023-05-19T15:44:00.649Z,64.41
2023-05-19T15:46:28.459Z,64.66
2023-05-19T15:48:55.611Z,64.84
2023-05-19T15:51:23.013Z,64.88
2023-05-19T15:53:49.954Z,64.90
2023-05-19T15:56:16.942Z,65.01
2023-05-19T15:58:43.684Z,65.29
2023-05-19T16:01:10.555Z,65.51
2023-05-19T16:03:37.934Z,65.51
2023-05-19T16:06:05.053Z,65.22
2023-05-19T16:08:32.021Z,65.53
2023-05-19T16:10:58.792Z,66.00
2023-05-19T16:13:25.492Z,65.99
2023-05-19T16:15:52.820Z,66.15
2023-05-19T16:18:19.765Z,66.27
2023-05-19T16:20:46.526Z,66.53
2023-05-19T16:23:13.352Z,66.94
2023-05-19T16:25:40.132Z,67.00
2023-05-19T16:28:07.111Z,66.84
2023-05-19T16:30:34.264Z,66.85
2023-05-19T16:33:01.484Z,66.97
2023-05-19T16:35:29.684Z,66.64
2023-05-19T16:37:56.563Z,66.91
2023-05-19T16:40:23.425Z,67.13
2023-05-19T16:42:52.833Z,67.32
2023-05-19T16:45:19.766Z,67.08
2023-05-19T16:47:46.912Z,67.14
2023-05-19T16:50:13.942Z,67.08
2023-05-19T16:52:40.871Z,66.98
2023-05-19T16:55:08.040Z,66.98
2023-05-19T16:57:34.898Z,66.72
2023-05-19T17:00:01.769Z,66.23
2023-05-19T17:02:28.617Z,66.18
2023-05-19T17:04:55.706Z,66.09
2023-05-19T17:07:22.510Z,66.50
2023-05-19T17:09:49.412Z,67.18
2023-05-19T17:12:16.347Z,67.58
2023-05-19T17:14:43.655Z,67.75
2023-05-19T17:17:10.716Z,67.85
2023-05-19T17:19:37.573Z,68.11
2023-05-19T17:22:04.633Z,68.12
2023-05-19T17:24:33.368Z,68.22
2023-05-19T17:27:00.881Z,68.30
2023-05-19T17:29:30.659Z,68.57
2023-05-19T17:31:57.590Z,68.61
2023-05-19T17:34:24.628Z,68.69
2023-05-19T17:36:51.412Z,68.47
2023-05-19T17:39:20.310Z,68.26
2023-05-19T17:41:47.170Z,68.73
2023-05-19T17:44:13.923Z,68.97
2023-05-19T17:46:40.785Z,69.47
2023-05-19T17:49:07.852Z,69.34
2023-05-19T17:51:34.983Z,69.54
2023-05-19T17:54:02.055Z,69.61
2023-05-19T17:56:34.296Z,69.70
2023-05-19T17:59:01.024Z,69.75
2023-05-19T18:01:28.157Z,70.14
2023-05-19T18:03:55.313Z,70.19
2023-05-19T18:06:24.303Z,70.51
2023-05-19T18:08:52.665Z,70.63
2023-05-19T18:11:19.741Z,70.50
2023-05-19T18:13:46.514Z,70.77
2023-05-19T18:16:14.691Z,70.66
2023-05-19T18:18:43.795Z,70.93
2023-05-19T18:21:17.801Z,71.14
2023-05-19T18:23:45.955Z,71.16
2023-05-19T18:26:13.346Z,71.46
2023-05-19T18:28:41.314Z,71.74
2023-05-19T18:31:17.428Z,71.54
2023-05-19T18:33:46.062Z,71.45
2023-05-19T18:36:13.722Z,71.45
2023-05-19T18:38:41.056Z,71.58
2023-05-19T18:41:08.160Z,71.73
2023-05-19T18:43:35.052Z,71.80
2023-05-19T18:46:01.796Z,71.75
2023-05-19T18:48:29.437Z,71.83
2023-05-19T18:50:57.368Z,72.04
2023-05-19T18:53:24.496Z,72.34
2023-05-19T18:55:51.187Z,72.25
2023-05-19T18:58:18.739Z,72.43
2023-05-19T19:00:45.664Z,72.52
2023-05-19T19:03:12.849Z,72.40
2023-05-19T19:05:39.742Z,72.34
2023-05-19T19:08:06.671Z,72.63
2023-05-19T19:10:34.969Z,72.63
2023-05-19T19:13:01.994Z,72.39
2023-05-19T19:15:28.798Z,72.49
2023-05-19T19:17:55.621Z,72.24
2023-05-19T19:20:22.719Z,72.52
2023-05-19T19:22:49.628Z,72.52
2023-05-19T19:25:16.880Z,72.96
2023-05-19T19:27:43.934Z,73.06
2023-05-19T19:30:13.804Z,73.35
2023-05-19T19:32:40.770Z,73.52
2023-05-19T19:35:07.941Z,73.61
2023-05-19T19:37:34.795Z,73.56
2023-05-19T19:40:01.953Z,73.50
2023-05-19T19:42:30.322Z,73.49
2023-05-19T19:44:57.619Z,73.45
2023-05-19T19:47:24.460Z,73.19
2023-05-19T19:49:51.461Z,73.26
2023-05-19T19:52:18.332Z,73.73
2023-05-19T19:54:45.195Z,73.02
2023-05-19T19:57:16.889Z,72.58
2023-05-19T19:59:43.799Z,70.86
2023-05-19T20:02:10.802Z,69.45
2023-05-19T20:04:37.892Z,68.99
2023-05-19T20:07:05.068Z,68.66
2023-05-19T20:09:31.806Z,68.47
2023-05-19T20:11:58.766Z,68.63
2023-05-19T20:14:25.545Z,68.14
2023-05-19T20:16:52.361Z,67.55
2023-05-19T20:19:19.191Z,67.59
2023-05-19T20:21:46.358Z,67.47
2023-05-19T20:24:13.076Z,67.43
2023-05-19T20:26:39.842Z,67.25
2023-05-19T20:29:06.682Z,67.47
2023-05-19T20:31:33.501Z,67.26
2023-05-19T20:34:01.769Z,67.77
2023-05-19T20:36:28.785Z,68.52
2023-05-19T20:38:55.911Z,68.32
2023-05-19T20:41:22.698Z,68.42
2023-05-19T20:43:49.463Z,68.52
2023-05-19T20:46:16.471Z,68.84
2023-05-19T20:48:43.279Z,69.11
2023-05-19T20:51:10.005Z,69.13
2023-05-19T20:53:36.707Z,69.38
2023-05-19T20:56:05.381Z,69.32
2023-05-19T20:58:32.378Z,69.13
2023-05-19T21:00:59.198Z,68.99
2023-05-19T21:03:27.149Z,69.01
2023-05-19T21:05:55.318Z,68.96
2023-05-19T21:08:22.801Z,69.21
2023-05-19T21:10:49.608Z,69.12
2023-05-19T21:13:17.465Z,69.23
2023-05-19T21:15:44.413Z,69.03
2023-05-19T21:18:12.644Z,69.37
2023-05-19T21:20:39.933Z,68.96
2023-05-19T21:23:06.876Z,68.92
2023-05-19T21:25:33.821Z,68.83
2023-05-19T21:28:00.758Z,69.18
2023-05-19T21:30:28.731Z,68.81
2023-05-19T21:32:55.730Z,68.31
2023-05-19T21:35:22.665Z,68.18
2023-05-19T21:37:49.391Z,67.95
2023-05-19T21:40:16.411Z,67.55
2023-05-19T21:42:43.371Z,67.12
2023-05-19T21:45:11.012Z,67.23
2023-05-19T21:47:37.767Z,67.14
2023-05-19T21:50:04.942Z,67.26
2023-05-19T21:52:31.627Z,67.56
2023-05-19T21:54:58.470Z,67.17
2023-05-19T21:57:25.227Z,65.85
2023-05-19T21:59:51.999Z,65.62
2023-05-19T22:02:18.742Z,66.01
2023-05-19T22:04:45.817Z,65.85
2023-05-19T22:07:12.575Z,65.73
2023-05-19T22:09:39.324Z,65.58
2023-05-19T22:12:06.678Z,65.70
2023-05-19T22:14:33.440Z,65.19
2023-05-19T22:17:00.150Z,65.24
2023-05-19T22:19:26.884Z,64.55
2023-05-19T22:22:01.966Z,64.29
2023-05-19T22:24:32.672Z,64.12
2023-05-19T22:26:59.440Z,63.87
2023-05-19T22:29:26.171Z,64.13
2023-05-19T22:31:52.983Z,63.70
2023-05-19T22:34:19.979Z,64.30
2023-05-19T22:36:46.825Z,64.48
2023-05-19T22:39:13.717Z,64.56
2023-05-19T22:41:41.008Z,63.67
2023-05-19T22:44:10.415Z,63.99
2023-05-19T22:46:37.295Z,63.64
2023-05-19T22:49:04.073Z,63.23
2023-05-19T22:51:31.254Z,63.59
2023-05-19T22:53:57.970Z,63.10
2023-05-19T22:56:24.682Z,62.12
2023-05-19T22:58:51.560Z,62.27
2023-05-19T23:01:18.987Z,62.42
2023-05-19T23:03:45.910Z,62.04
2023-05-19T23:06:12.729Z,61.55
2023-05-19T23:08:39.769Z,61.66
2023-05-19T23:11:07.349Z,61.55
2023-05-19T23:13:34.034Z,61.61
2023-05-19T23:16:01.065Z,61.14
2023-05-19T23:18:27.817Z,61.02
2023-05-19T23:20:54.521Z,60.84
2023-05-19T23:23:21.255Z,60.91
2023-05-19T23:25:47.974Z,60.78
2023-05-19T23:28:14.661Z,60.50
2023-05-19T23:30:41.425Z,60.69
2023-05-19T23:33:08.153Z,60.49
2023-05-19T23:35:35.399Z,60.38
2023-05-19T23:38:02.518Z,60.01
2023-05-19T23:40:29.228Z,60.23
2023-05-19T23:42:55.964Z,59.79
2023-05-19T23:45:22.670Z,59.93
2023-05-19T23:47:49.424Z,59.45
2023-05-19T23:50:16.343Z,59.93
2023-05-19T23:52:43.079Z,59.66
2023-05-19T23:55:10.143Z,59.86
2023-05-19T23:57:36.900Z,59.89
